createdAt,value
2019-02-04T00:01:02.485Z,5.77
2019-02-04T00:03:31.763Z,4.90
2019-02-04T00:06:01.100Z,5.20
2019-02-04T00:08:30.653Z,5.23
2019-02-04T00:10:59.857Z,5.17
2019-02-04T00:13:29.039Z,5.03
2019-02-04T00:15:58.430Z,5.23
2019-02-04T00:18:27.811Z,5.30
2019-02-04T00:20:57.077Z,5.43
2019-02-04T00:23:26.320Z,4.97
2019-02-04T00:25:55.579Z,5.47
2019-02-04T00:28:24.809Z,5.13
2019-02-04T00:30:54.232Z,5.10
2019-02-04T00:33:23.435Z,4.70
2019-02-04T00:35:52.985Z,4.83
2019-02-04T00:38:22.200Z,5.00
2019-02-04T00:40:51.553Z,5.13
2019-02-04T00:43:20.769Z,5.07
2019-02-04T00:45:49.928Z,5.30
2019-02-04T00:48:19.172Z,4.90
2019-02-04T00:50:49.106Z,5.50
2019-02-04T00:53:18.408Z,4.87
2019-02-04T00:55:47.582Z,4.87
2019-02-04T00:58:16.785Z,4.77
2019-02-04T01:00:46.036Z,5.03
2019-02-04T01:03:15.171Z,5.10
2019-02-04T01:05:44.808Z,5.73
2019-02-04T01:08:14.344Z,5.17
2019-02-04T01:10:43.514Z,4.87
2019-02-04T01:13:12.672Z,4.60
2019-02-04T01:15:41.824Z,4.70
2019-02-04T01:18:10.957Z,5.00
2019-02-04T01:20:40.288Z,5.10
2019-02-04T01:23:09.655Z,4.80
2019-02-04T01:25:38.899Z,4.47
2019-02-04T01:28:08.090Z,4.73
2019-02-04T01:30:37.248Z,4.50
2019-02-04T01:33:06.396Z,4.87
2019-02-04T01:35:35.603Z,5.80
2019-02-04T01:38:04.744Z,5.50
2019-02-04T01:40:33.912Z,6.43
2019-02-04T01:43:03.131Z,5.30
2019-02-04T01:45:32.276Z,5.00
2019-02-04T01:48:01.975Z,4.93
2019-02-04T01:50:31.155Z,4.70
2019-02-04T01:53:00.336Z,4.50
2019-02-04T01:55:29.456Z,4.70
2019-02-04T01:57:58.611Z,4.43
2019-02-04T02:00:30.614Z,4.93
2019-02-04T02:03:00.045Z,4.30
2019-02-04T02:05:29.514Z,4.43
2019-02-04T02:07:58.707Z,4.67
2019-02-04T02:10:28.628Z,4.50
2019-02-04T02:12:58.302Z,4.57
2019-02-04T02:15:27.428Z,5.07
2019-02-04T02:17:56.575Z,4.60
2019-02-04T02:20:27.907Z,4.87
2019-02-04T02:22:57.052Z,4.60
2019-02-04T02:25:26.385Z,4.80
2019-02-04T02:27:55.664Z,4.73
2019-02-04T02:30:27.708Z,4.47
2019-02-04T02:32:56.962Z,4.60
2019-02-04T02:35:26.160Z,4.57
2019-02-04T02:37:55.309Z,4.37
2019-02-04T02:40:28.342Z,4.63
2019-02-04T02:42:57.548Z,4.20
2019-02-04T02:45:26.802Z,4.47
2019-02-04T02:47:56.058Z,4.50
2019-02-04T02:50:25.457Z,4.80
2019-02-04T02:52:54.639Z,5.43
2019-02-04T02:55:23.797Z,5.17
2019-02-04T02:57:52.947Z,4.77
2019-02-04T03:00:23.885Z,5.30
2019-02-04T03:02:53.242Z,4.87
2019-02-04T03:05:22.974Z,5.20
2019-02-04T03:07:52.303Z,4.87
2019-02-04T03:10:32.101Z,5.07
2019-02-04T03:13:01.531Z,4.60
2019-02-04T03:15:30.677Z,4.23
2019-02-04T03:17:59.848Z,4.90
2019-02-04T03:20:29.000Z,4.27
2019-02-04T03:22:58.267Z,4.70
2019-02-04T03:25:27.691Z,4.73
2019-02-04T03:27:56.828Z,4.93
2019-02-04T03:30:31.776Z,5.03
2019-02-04T03:33:01.225Z,5.00
2019-02-04T03:35:30.495Z,4.80
2019-02-04T03:38:00.201Z,4.43
2019-02-04T03:40:31.517Z,4.60
2019-02-04T03:43:00.955Z,5.07
2019-02-04T03:45:30.202Z,5.10
2019-02-04T03:48:06.513Z,5.33
2019-02-04T03:50:30.502Z,5.23
2019-02-04T03:52:59.739Z,5.27
2019-02-04T03:55:29.102Z,5.20
2019-02-04T03:57:58.237Z,4.80
2019-02-04T04:00:29.912Z,5.20
2019-02-04T04:02:59.051Z,4.97
2019-02-04T04:05:28.765Z,5.23
2019-02-04T04:07:58.019Z,5.37
2019-02-04T04:10:27.237Z,5.10
2019-02-04T04:12:56.439Z,5.27
2019-02-04T04:15:25.572Z,5.20
2019-02-04T04:17:54.800Z,4.87
2019-02-04T04:20:23.940Z,5.57
2019-02-04T04:22:53.154Z,5.43
2019-02-04T04:25:22.372Z,4.83
2019-02-04T04:27:51.530Z,5.20
2019-02-04T04:30:22.974Z,5.43
2019-02-04T04:32:52.362Z,5.77
2019-02-04T04:35:21.495Z,5.87
2019-02-04T04:37:50.737Z,6.17
2019-02-04T04:40:19.880Z,6.40
2019-02-04T04:42:49.136Z,14.00
2019-02-04T04:45:20.577Z,12.53
2019-02-04T04:47:50.205Z,11.47
2019-02-04T04:50:19.452Z,7.80
2019-02-04T04:52:48.884Z,7.80
2019-02-04T04:55:20.514Z,8.63
2019-02-04T04:57:49.699Z,8.03
2019-02-04T05:00:21.477Z,8.17
2019-02-04T05:02:51.025Z,7.00
2019-02-04T05:05:20.276Z,6.37
2019-02-04T05:07:49.541Z,6.57
2019-02-04T05:10:19.632Z,7.03
2019-02-04T05:12:48.772Z,38.87
2019-02-04T05:15:20.275Z,18.20
2019-02-04T05:17:52.303Z,11.00
2019-02-04T05:20:20.437Z,6.60
2019-02-04T05:22:49.668Z,5.57
2019-02-04T05:25:19.385Z,6.77
2019-02-04T05:27:48.526Z,7.60
2019-02-04T05:30:19.693Z,6.60
2019-02-04T05:32:49.176Z,7.03
2019-02-04T05:35:18.573Z,7.93
2019-02-04T05:37:47.738Z,28.27
2019-02-04T05:40:17.558Z,11.43
2019-02-04T05:42:47.167Z,11.03
2019-02-04T05:45:18.032Z,9.47
2019-02-04T05:47:47.427Z,7.20
2019-02-04T05:50:18.188Z,6.03
2019-02-04T05:52:47.705Z,6.70
2019-02-04T05:55:18.312Z,6.53
2019-02-04T05:57:47.608Z,6.40
2019-02-04T06:00:25.415Z,7.07
2019-02-04T06:02:54.589Z,6.77
2019-02-04T06:05:23.751Z,6.70
2019-02-04T06:07:52.901Z,6.93
2019-02-04T06:10:22.289Z,6.67
2019-02-04T06:12:51.430Z,7.80
2019-02-04T06:15:20.689Z,7.77
2019-02-04T06:17:49.910Z,6.60
2019-02-04T06:20:20.458Z,6.50
2019-02-04T06:22:49.613Z,15.87
2019-02-04T06:25:19.033Z,31.33
2019-02-04T06:27:48.208Z,11.10
2019-02-04T06:30:17.612Z,6.80
2019-02-04T06:32:46.836Z,6.20
2019-02-04T06:35:16.401Z,8.17
2019-02-04T06:37:46.839Z,8.23
2019-02-04T06:40:17.067Z,8.03
2019-02-04T06:42:46.414Z,7.20
2019-02-04T06:45:16.120Z,7.03
2019-02-04T06:47:45.398Z,7.30
2019-02-04T06:50:15.933Z,6.90
2019-02-04T06:52:45.521Z,6.97
2019-02-04T06:55:17.472Z,12.60
2019-02-04T06:57:46.753Z,15.27
2019-02-04T07:00:16.603Z,9.63
2019-02-04T07:02:46.186Z,7.80
2019-02-04T07:05:16.292Z,7.50
2019-02-04T07:07:47.638Z,7.07
2019-02-04T07:10:19.700Z,6.97
2019-02-04T07:12:48.869Z,7.93
2019-02-04T07:15:18.190Z,7.43
2019-02-04T07:17:47.373Z,7.70
2019-02-04T07:20:22.109Z,7.53
2019-02-04T07:22:51.412Z,8.00
2019-02-04T07:25:21.602Z,7.43
2019-02-04T07:27:51.091Z,7.63
2019-02-04T07:30:22.556Z,9.10
2019-02-04T07:32:52.109Z,10.63
2019-02-04T07:35:21.694Z,11.20
2019-02-04T07:37:50.849Z,10.13
2019-02-04T07:40:25.325Z,9.67
2019-02-04T07:42:54.595Z,10.83
2019-02-04T07:45:23.875Z,9.53
2019-02-04T07:47:53.417Z,11.07
2019-02-04T07:50:22.650Z,10.60
2019-02-04T07:52:51.816Z,10.33
2019-02-04T07:55:20.949Z,10.00
2019-02-04T07:57:50.133Z,10.87
2019-02-04T08:00:22.129Z,13.40
2019-02-04T08:02:52.102Z,13.33
2019-02-04T08:05:21.265Z,12.87
2019-02-04T08:07:50.429Z,12.97
2019-02-04T08:10:19.565Z,10.20
2019-02-04T08:13:00.505Z,10.40
2019-02-04T08:15:22.348Z,11.83
2019-02-04T08:17:51.602Z,11.60
2019-02-04T08:20:22.757Z,10.70
2019-02-04T08:22:51.641Z,9.93
2019-02-04T08:25:21.008Z,9.67
2019-02-04T08:27:50.162Z,15.33
2019-02-04T08:30:27.240Z,11.03
2019-02-04T08:32:56.669Z,10.67
2019-02-04T08:35:25.807Z,9.13
2019-02-04T08:37:55.046Z,10.67
2019-02-04T08:40:24.407Z,9.67
2019-02-04T08:42:53.836Z,10.50
2019-02-04T08:45:23.000Z,9.23
2019-02-04T08:47:52.224Z,9.17
2019-02-04T08:50:21.880Z,9.10
2019-02-04T08:52:51.036Z,9.70
2019-02-04T08:55:20.176Z,9.27
2019-02-04T08:57:49.825Z,9.70
2019-02-04T09:00:20.479Z,9.87
2019-02-04T09:02:49.992Z,9.40
2019-02-04T09:05:20.209Z,9.60
2019-02-04T09:07:49.696Z,9.80
2019-02-04T09:10:30.986Z,10.00
2019-02-04T09:13:00.744Z,15.10
2019-02-04T09:15:30.147Z,49.60
2019-02-04T09:18:00.257Z,18.93
2019-02-04T09:20:29.406Z,11.93
2019-02-04T09:22:58.608Z,10.23
2019-02-04T09:25:28.026Z,9.40
2019-02-04T09:27:57.725Z,9.47
2019-02-04T09:30:27.334Z,10.47
2019-02-04T09:32:57.448Z,10.20
2019-02-04T09:35:27.217Z,9.93
2019-02-04T09:38:16.965Z,10.97
2019-02-04T09:40:46.387Z,9.80
2019-02-04T09:43:15.599Z,9.47
2019-02-04T09:45:45.885Z,9.90
2019-02-04T09:48:18.360Z,9.63
2019-02-04T09:50:49.662Z,9.30
2019-02-04T09:53:18.902Z,10.20
2019-02-04T09:55:49.059Z,9.43
2019-02-04T09:58:18.203Z,8.33
2019-02-04T10:00:47.579Z,9.13
2019-02-04T10:03:16.733Z,9.20
2019-02-04T10:05:46.556Z,9.43
2019-02-04T10:08:15.692Z,9.63
2019-02-04T10:10:44.848Z,9.67
2019-02-04T10:13:13.992Z,10.33
2019-02-04T10:15:45.759Z,9.20
2019-02-04T10:18:14.129Z,9.47
2019-02-04T10:20:43.589Z,10.07
2019-02-04T10:23:12.860Z,9.03
2019-02-04T10:25:43.148Z,10.17
2019-02-04T10:28:13.839Z,7.27
2019-02-04T10:30:43.135Z,7.33
2019-02-04T10:33:13.291Z,6.57
2019-02-04T10:35:42.726Z,5.53
2019-02-04T10:38:12.540Z,4.67
2019-02-04T10:40:41.817Z,4.77
2019-02-04T10:43:11.104Z,4.40
2019-02-04T10:45:40.433Z,4.63
2019-02-04T10:48:09.997Z,5.43
2019-02-04T10:50:46.305Z,4.80
2019-02-04T10:53:11.795Z,5.10
2019-02-04T10:55:41.053Z,4.47
2019-02-04T10:58:12.507Z,4.10
2019-02-04T11:00:42.100Z,4.00
2019-02-04T11:03:11.861Z,4.50
2019-02-04T11:05:41.917Z,4.30
2019-02-04T11:08:12.217Z,4.70
2019-02-04T11:10:42.155Z,4.47
2019-02-04T11:13:13.624Z,4.20
2019-02-04T11:15:44.492Z,4.43
2019-02-04T11:18:14.965Z,5.10
2019-02-04T11:20:44.772Z,4.23
2019-02-04T11:23:14.411Z,5.33
2019-02-04T11:25:44.259Z,3.93
2019-02-04T11:28:14.494Z,4.43
2019-02-04T11:31:08.066Z,4.43
2019-02-04T11:33:37.272Z,4.30
2019-02-04T11:36:06.537Z,4.57
2019-02-04T11:38:36.475Z,3.20
2019-02-04T11:41:06.225Z,4.57
2019-02-04T11:43:35.637Z,5.90
2019-02-04T11:46:05.092Z,5.73
2019-02-04T11:48:34.252Z,4.73
2019-02-04T11:51:09.834Z,4.40
2019-02-04T11:53:34.690Z,4.57
2019-02-04T11:56:04.256Z,4.30
2019-02-04T11:58:33.843Z,4.37
2019-02-04T12:01:03.281Z,4.60
2019-02-04T12:03:32.457Z,4.60
2019-02-04T12:06:01.657Z,5.57
2019-02-04T12:08:30.792Z,4.73
2019-02-04T12:11:10.052Z,4.20
2019-02-04T12:13:39.191Z,4.63
2019-02-04T12:16:08.353Z,4.60
2019-02-04T12:18:37.493Z,4.70
2019-02-04T12:21:07.112Z,4.80
2019-02-04T12:23:36.268Z,5.60
2019-02-04T12:26:05.752Z,5.00
2019-02-04T12:28:34.908Z,4.00
2019-02-04T12:31:04.178Z,4.63
2019-02-04T12:33:33.308Z,5.37
2019-02-04T12:36:02.466Z,5.40
2019-02-04T12:38:31.671Z,5.30
2019-02-04T12:41:00.933Z,4.90
2019-02-04T12:43:30.205Z,9.33
2019-02-04T12:45:59.366Z,4.63
2019-02-04T12:48:28.507Z,4.30
2019-02-04T12:50:57.957Z,5.40
2019-02-04T12:53:27.104Z,5.03
2019-02-04T12:55:56.351Z,4.73
2019-02-04T12:58:25.500Z,4.80
2019-02-04T13:00:54.673Z,4.93
2019-02-04T13:03:23.796Z,4.97
2019-02-04T13:05:55.045Z,4.20
2019-02-04T13:08:24.314Z,5.47
2019-02-04T13:10:53.514Z,5.70
2019-02-04T13:13:23.811Z,4.83
2019-02-04T13:15:53.071Z,4.30
2019-02-04T13:18:22.958Z,4.93
2019-02-04T13:20:52.111Z,4.87
2019-02-04T13:23:21.416Z,4.50
2019-02-04T13:25:50.559Z,4.70
2019-02-04T13:28:21.310Z,4.33
2019-02-04T13:30:50.462Z,5.00
2019-02-04T13:33:20.686Z,5.20
2019-02-04T13:35:49.844Z,4.90
2019-02-04T13:38:19.093Z,5.00
2019-02-04T13:40:48.461Z,5.50
2019-02-04T13:43:17.624Z,5.40
2019-02-04T13:45:46.766Z,5.30
2019-02-04T13:48:16.301Z,6.67
2019-02-04T13:50:45.457Z,10.97
2019-02-04T13:53:14.827Z,5.50
2019-02-04T13:55:44.081Z,4.90
2019-02-04T13:58:13.376Z,5.40
2019-02-04T14:00:42.589Z,4.77
2019-02-04T14:03:11.843Z,4.90
2019-02-04T14:05:41.002Z,4.70
2019-02-04T14:08:10.529Z,4.53
2019-02-04T14:10:42.612Z,4.50
2019-02-04T14:13:12.469Z,4.83
2019-02-04T14:15:42.604Z,5.10
2019-02-04T14:18:12.532Z,5.00
2019-02-04T14:20:41.733Z,4.80
2019-02-04T14:23:10.999Z,4.43
2019-02-04T14:25:40.125Z,4.90
2019-02-04T14:28:09.392Z,5.30
2019-02-04T14:30:39.548Z,5.10
2019-02-04T14:33:09.007Z,4.93
2019-02-04T14:35:38.413Z,5.40
2019-02-04T14:38:09.240Z,5.10
2019-02-04T14:40:38.864Z,5.50
2019-02-04T14:43:44.868Z,4.10
2019-02-04T14:46:57.430Z,4.50
2019-02-04T14:49:45.783Z,4.77
2019-02-04T14:53:11.273Z,4.73
2019-02-04T14:56:20.421Z,4.87
2019-02-04T14:59:12.731Z,4.93
2019-02-04T15:02:09.113Z,5.00
2019-02-04T15:05:10.270Z,5.10
2019-02-04T15:08:42.341Z,5.00
2019-02-04T15:11:59.122Z,5.07
2019-02-04T15:15:10.945Z,4.63
2019-02-04T15:18:16.944Z,5.10
2019-02-04T15:21:23.607Z,5.33
2019-02-04T15:24:29.984Z,5.27
2019-02-04T15:27:41.182Z,5.53
2019-02-04T15:30:49.881Z,5.17
2019-02-04T15:34:06.628Z,5.20
2019-02-04T15:37:05.986Z,5.40
2019-02-04T15:39:57.448Z,4.80
2019-02-04T15:43:12.832Z,4.63
2019-02-04T15:46:07.010Z,4.97
2019-02-04T15:49:03.436Z,4.73
2019-02-04T15:51:37.352Z,4.87
2019-02-04T15:54:08.584Z,5.17
2019-02-04T15:56:37.846Z,4.70
2019-02-04T15:59:07.118Z,5.00
2019-02-04T16:01:36.358Z,4.80
2019-02-04T16:04:31.487Z,4.17
2019-02-04T16:07:00.702Z,4.10
2019-02-04T16:09:30.613Z,3.87
2019-02-04T16:11:59.773Z,4.27
2019-02-04T16:14:28.997Z,4.97
2019-02-04T16:16:58.207Z,4.50
2019-02-04T16:19:27.384Z,4.60
2019-02-04T16:21:56.720Z,4.60
2019-02-04T16:24:26.061Z,4.37
2019-02-04T16:26:55.202Z,4.50
2019-02-04T16:29:24.392Z,4.77
2019-02-04T16:31:53.622Z,6.30
2019-02-04T16:34:24.127Z,5.10
2019-02-04T16:36:53.480Z,4.93
2019-02-04T16:39:23.939Z,5.00
2019-02-04T16:41:53.130Z,4.83
2019-02-04T16:44:22.960Z,4.40
2019-02-04T16:46:54.526Z,4.47
2019-02-04T16:49:23.153Z,5.90
2019-02-04T16:51:52.560Z,7.23
2019-02-04T16:54:21.728Z,6.47
2019-02-04T16:56:50.893Z,5.07
2019-02-04T16:59:20.626Z,5.20
2019-02-04T17:01:49.787Z,4.87
2019-02-04T17:04:19.056Z,5.37
2019-02-04T17:06:48.392Z,5.40
2019-02-04T17:09:17.924Z,5.10
2019-02-04T17:11:47.179Z,4.97
2019-02-04T17:14:16.622Z,5.27
2019-02-04T17:16:45.800Z,4.93
2019-02-04T17:19:15.044Z,5.87
2019-02-04T17:21:44.389Z,5.30
2019-02-04T17:24:13.512Z,5.53
2019-02-04T17:26:42.726Z,5.43
2019-02-04T17:29:12.267Z,7.03
2019-02-04T17:31:41.568Z,25.30
2019-02-04T17:34:10.741Z,10.80
2019-02-04T17:36:39.979Z,7.43
2019-02-04T17:39:09.729Z,7.10
2019-02-04T17:41:39.007Z,7.73
2019-02-04T17:44:08.907Z,8.47
2019-02-04T17:46:38.496Z,8.03
2019-02-04T17:49:07.804Z,8.80
2019-02-04T17:51:36.955Z,8.50
2019-02-04T17:54:06.341Z,7.73
2019-02-04T17:56:35.623Z,8.10
2019-02-04T17:59:05.298Z,9.13
2019-02-04T18:01:34.530Z,7.83
2019-02-04T18:04:03.703Z,6.97
2019-02-04T18:06:33.033Z,7.07
2019-02-04T18:09:02.350Z,6.60
2019-02-04T18:11:31.520Z,6.97
2019-02-04T18:14:00.974Z,6.67
2019-02-04T18:16:30.116Z,6.97
2019-02-04T18:18:59.608Z,31.60
2019-02-04T18:21:29.076Z,10.67
2019-02-04T18:23:58.355Z,7.50
2019-02-04T18:26:27.856Z,7.20
2019-02-04T18:28:57.860Z,8.03
2019-02-04T18:31:27.001Z,7.70
2019-02-04T18:33:56.632Z,9.37
2019-02-04T18:36:25.868Z,8.47
2019-02-04T18:38:55.621Z,9.33
2019-02-04T18:41:24.967Z,10.00
2019-02-04T18:43:56.428Z,9.30
2019-02-04T18:46:25.593Z,9.57
2019-02-04T18:48:54.857Z,8.57
2019-02-04T18:51:24.041Z,9.40
2019-02-04T18:53:57.853Z,7.57
2019-02-04T18:56:24.815Z,8.80
2019-02-04T18:58:54.073Z,8.40
2019-02-04T19:01:25.412Z,11.67
2019-02-04T19:03:54.688Z,17.43
2019-02-04T19:06:23.984Z,11.77
2019-02-04T19:08:53.156Z,9.10
2019-02-04T19:11:22.515Z,9.10
2019-02-04T19:13:51.736Z,9.30
2019-02-04T19:16:21.109Z,10.00
2019-02-04T19:18:50.298Z,9.93
2019-02-04T19:21:19.651Z,10.07
2019-02-04T19:23:48.835Z,13.23
2019-02-04T19:26:18.416Z,13.30
2019-02-04T19:28:47.624Z,13.73
2019-02-04T19:31:22.941Z,14.80
2019-02-04T19:33:52.239Z,13.87
2019-02-04T19:36:23.175Z,15.77
2019-02-04T19:38:52.523Z,31.43
2019-02-04T19:41:22.016Z,14.57
2019-02-04T19:43:53.158Z,15.20
2019-02-04T19:46:22.170Z,12.53
2019-02-04T19:48:51.387Z,12.40
2019-02-04T19:51:21.089Z,13.17
2019-02-04T19:53:50.297Z,12.07
2019-02-04T19:56:20.005Z,12.53
2019-02-04T19:58:49.149Z,11.80
2019-02-04T20:01:18.990Z,11.33
2019-02-04T20:03:48.386Z,11.17
2019-02-04T20:06:18.084Z,10.63
2019-02-04T20:08:47.264Z,10.00
2019-02-04T20:11:16.838Z,9.90
2019-02-04T20:13:46.102Z,8.90
2019-02-04T20:16:15.250Z,9.93
2019-02-04T20:18:44.534Z,10.20
2019-02-04T20:21:14.455Z,11.30
2019-02-04T20:23:43.650Z,11.97
2019-02-04T20:26:12.908Z,10.53
2019-02-04T20:28:42.188Z,10.90
2019-02-04T20:31:11.657Z,11.40
2019-02-04T20:33:41.388Z,9.90
2019-02-04T20:36:11.026Z,10.67
2019-02-04T20:38:40.407Z,10.80
2019-02-04T20:41:09.897Z,11.20
2019-02-04T20:43:39.093Z,11.33
2019-02-04T20:46:08.350Z,18.67
2019-02-04T20:48:37.617Z,19.57
2019-02-04T20:51:07.437Z,11.63
2019-02-04T20:53:36.638Z,10.73
2019-02-04T20:56:05.894Z,11.00
2019-02-04T20:58:35.137Z,10.47
2019-02-04T21:01:04.558Z,12.37
2019-02-04T21:03:33.741Z,14.80
2019-02-04T21:06:03.277Z,12.57
2019-02-04T21:08:32.567Z,12.77
2019-02-04T21:11:01.774Z,15.30
2019-02-04T21:13:30.933Z,13.60
2019-02-04T21:16:00.271Z,14.20
2019-02-04T21:18:29.539Z,14.33
2019-02-04T21:20:59.218Z,15.20
2019-02-04T21:23:28.509Z,13.83
2019-02-04T21:25:57.797Z,14.97
2019-02-04T21:28:27.023Z,14.57
2019-02-04T21:30:56.296Z,13.70
2019-02-04T21:33:25.466Z,11.83
2019-02-04T21:35:54.809Z,11.80
2019-02-04T21:38:25.690Z,12.00
2019-02-04T21:40:55.513Z,11.30
2019-02-04T21:43:24.661Z,12.80
2019-02-04T21:45:53.881Z,21.00
2019-02-04T21:48:23.166Z,26.83
2019-02-04T21:50:52.711Z,13.10
2019-02-04T21:53:21.985Z,12.80
2019-02-04T21:55:51.143Z,12.50
2019-02-04T21:58:20.393Z,12.87
2019-02-04T22:00:49.557Z,12.47
2019-02-04T22:03:18.723Z,13.87
2019-02-04T22:05:48.249Z,13.70
2019-02-04T22:08:17.392Z,13.20
2019-02-04T22:10:46.568Z,13.03
2019-02-04T22:13:15.785Z,12.13
2019-02-04T22:15:45.341Z,12.50
2019-02-04T22:18:14.525Z,12.47
2019-02-04T22:20:44.030Z,22.00
2019-02-04T22:23:13.308Z,25.47
2019-02-04T22:25:42.984Z,15.67
2019-02-04T22:28:12.141Z,14.00
2019-02-04T22:30:41.313Z,12.77
2019-02-04T22:33:10.481Z,13.03
2019-02-04T22:35:39.658Z,11.70
2019-02-04T22:38:10.792Z,11.90
2019-02-04T22:40:40.193Z,13.13
2019-02-04T22:43:09.744Z,12.67
2019-02-04T22:45:38.872Z,11.80
2019-02-04T22:48:08.065Z,11.90
2019-02-04T22:50:37.289Z,11.47
2019-02-04T22:53:06.735Z,11.97
2019-02-04T22:55:35.933Z,12.23
2019-02-04T22:58:06.150Z,12.17
2019-02-04T23:01:11.275Z,13.53
2019-02-04T23:03:40.494Z,14.27
2019-02-04T23:06:09.663Z,14.30
2019-02-04T23:08:38.925Z,12.97
2019-02-04T23:11:08.077Z,12.93
2019-02-04T23:13:37.685Z,13.17
2019-02-04T23:16:07.552Z,12.70
2019-02-04T23:18:36.697Z,13.13
2019-02-04T23:21:06.245Z,12.30
2019-02-04T23:23:35.388Z,12.90
2019-02-04T23:26:04.756Z,11.70
2019-02-04T23:28:33.906Z,13.03
2019-02-04T23:31:03.088Z,12.23
2019-02-04T23:33:34.201Z,14.40
2019-02-04T23:36:03.338Z,13.37
2019-02-04T23:38:32.517Z,12.70
2019-02-04T23:41:01.683Z,12.80
2019-02-04T23:43:30.919Z,12.97
2019-02-04T23:46:00.083Z,12.20
2019-02-04T23:48:29.247Z,12.20
2019-02-04T23:50:58.697Z,12.53
2019-02-04T23:53:27.945Z,13.17
2019-02-04T23:55:57.389Z,12.87
2019-02-04T23:58:26.544Z,14.07
